HTDA/DAR METAR and TAF weather

Enter ICAO airport designator
Station Type Date Time Source
HTDA METAR 2021/08/05 04:00 UTC NOAA

HTDA 050400Z 24004KT 9999 SCT010 BKN070 21/20 Q1022 NOSIG


Station Type Date Time Source
HTDA Decoded METAR 2021/08/05 04:00 UTC NOAA

Dar Es Salaam Airport, Tanzania (HTDA) 06-52S 039-12E 55M
Aug 05, 2021 - 12:00 AM EDT / 2021.08.05 0400 UTC
Wind: from the WSW (240 degrees) at 5 MPH (4 KT):0
Visibility: greater than 7 mile(s):0
Sky conditions: mostly cloudy
Temperature: 69 F (21 C)
Dew Point: 68 F (20 C)
Relative Humidity: 94%
Pressure (altimeter): 30.18 in. Hg (1022 hPa)
ob: HTDA 050400Z 24004KT 9999 SCT010 BKN070 21/20 Q1022 NOSIG
cycle: 4

Station Type Date Time Source
HTDA TAF 2021/08/04 18:39 UTC NOAA

TAF TAF HTDA 041700Z 0418/0524 16005KT 9999 SCT013
BECMG 0503/0506 22010KT BKN010
BECMG 0512/0515 14015KT

Example: see airport list